createdAt,value
2022-09-15T00:00:58.769Z,30.76
2022-09-15T00:03:02.519Z,30.74
2022-09-15T00:05:06.579Z,30.82
2022-09-15T00:07:10.106Z,30.93
2022-09-15T00:09:14.186Z,31.25
2022-09-15T00:11:18.307Z,31.46
2022-09-15T00:13:23.228Z,32.04
2022-09-15T00:15:27.059Z,32.64
2022-09-15T00:17:30.783Z,33.05
2022-09-15T00:19:34.416Z,33.08
2022-09-15T00:21:41.316Z,32.93
2022-09-15T00:23:45.478Z,33.61
2022-09-15T00:25:50.136Z,33.88
2022-09-15T00:27:53.956Z,33.75
2022-09-15T00:30:00.628Z,34.32
2022-09-15T00:32:04.143Z,34.99
2022-09-15T00:34:08.303Z,34.56
2022-09-15T00:36:14.480Z,35.06
2022-09-15T00:38:19.673Z,35.69
2022-09-15T00:40:23.219Z,35.46
2022-09-15T00:42:35.158Z,35.67
2022-09-15T00:44:39.170Z,35.63
2022-09-15T00:46:54.682Z,36.41
2022-09-15T00:49:07.795Z,36.12
2022-09-15T00:51:14.110Z,36.34
2022-09-15T00:53:21.425Z,36.53
2022-09-15T00:55:31.931Z,37.01
2022-09-15T00:57:38.431Z,36.84
2022-09-15T00:59:43.205Z,36.89
2022-09-15T01:01:49.374Z,37.38
2022-09-15T01:03:53.539Z,37.59
2022-09-15T01:05:59.076Z,37.67
2022-09-15T01:08:11.243Z,37.77
2022-09-15T01:10:26.668Z,38.57
2022-09-15T01:12:33.309Z,39.49
2022-09-15T01:14:37.603Z,39.70
2022-09-15T01:19:23.343Z,39.67
2022-09-15T01:21:29.823Z,40.34
2022-09-15T01:24:00.007Z,40.79
2022-09-15T01:26:07.472Z,41.57
2022-09-15T01:28:31.357Z,41.70
2022-09-15T01:30:37.775Z,42.39
2022-09-15T01:33:05.990Z,42.05
2022-09-15T01:35:15.857Z,42.69
2022-09-15T01:37:23.718Z,43.33
2022-09-15T01:39:32.056Z,43.24
2022-09-15T01:41:52.147Z,43.60
2022-09-15T01:44:02.267Z,45.05
2022-09-15T01:46:06.764Z,44.72
2022-09-15T01:48:11.029Z,45.30
2022-09-15T01:50:21.592Z,46.08
2022-09-15T01:52:26.089Z,48.62
2022-09-15T01:54:31.897Z,47.10
2022-09-15T01:56:38.464Z,47.49
2022-09-15T01:58:42.645Z,47.88
2022-09-15T02:00:49.820Z,48.30
2022-09-15T02:03:05.103Z,48.14
2022-09-15T02:05:20.993Z,49.02
2022-09-15T02:07:33.003Z,49.31
2022-09-15T02:09:39.164Z,50.76
2022-09-15T02:11:53.512Z,50.44
2022-09-15T02:14:12.423Z,51.01
2022-09-15T02:16:21.115Z,51.67
2022-09-15T02:18:35.599Z,53.38
2022-09-15T02:20:53.433Z,55.97
2022-09-15T02:23:03.326Z,54.37
2022-09-15T02:25:10.741Z,54.36
2022-09-15T02:27:18.092Z,55.75
2022-09-15T02:29:22.962Z,56.12
2022-09-15T02:31:28.602Z,57.32
2022-09-15T02:33:36.798Z,56.32
2022-09-15T02:35:41.981Z,55.97
2022-09-15T02:37:50.061Z,57.60
2022-09-15T02:39:59.376Z,56.89
2022-09-15T02:42:03.671Z,57.26
2022-09-15T02:44:09.481Z,59.87
2022-09-15T02:46:16.778Z,61.47
2022-09-15T02:48:20.597Z,62.28
2022-09-15T02:50:30.572Z,59.92
2022-09-15T02:52:34.963Z,59.28
2022-09-15T02:54:39.062Z,62.37
2022-09-15T02:56:42.802Z,59.64
2022-09-15T02:58:46.267Z,60.11
2022-09-15T03:00:53.192Z,58.96
2022-09-15T03:02:59.293Z,58.97
2022-09-15T03:05:03.178Z,57.75
2022-09-15T03:07:09.548Z,58.16
2022-09-15T03:09:14.555Z,58.42
2022-09-15T03:11:18.891Z,56.90
2022-09-15T03:13:22.857Z,56.47
2022-09-15T03:15:27.216Z,56.35
2022-09-15T03:17:34.739Z,57.10
2022-09-15T03:19:38.437Z,57.30
2022-09-15T03:21:43.645Z,57.24
2022-09-15T03:23:52.555Z,57.65
2022-09-15T03:25:56.491Z,58.47
2022-09-15T03:28:00.052Z,58.60
2022-09-15T03:30:04.387Z,58.20
2022-09-15T03:32:07.980Z,58.52
2022-09-15T03:34:11.680Z,59.16
2022-09-15T03:36:15.909Z,59.08
2022-09-15T03:38:20.167Z,59.16
2022-09-15T03:40:23.720Z,59.19
2022-09-15T03:42:28.081Z,59.19
2022-09-15T03:44:31.739Z,58.37
2022-09-15T03:46:36.548Z,59.02
2022-09-15T03:48:41.978Z,59.30
2022-09-15T03:50:46.116Z,60.45
2022-09-15T03:52:53.557Z,60.19
2022-09-15T03:55:00.672Z,59.81
2022-09-15T03:57:04.303Z,59.13
2022-09-15T03:59:08.884Z,60.15
2022-09-15T04:01:14.953Z,59.09
2022-09-15T04:03:20.996Z,58.58
2022-09-15T04:05:24.631Z,58.55
2022-09-15T04:07:28.310Z,57.43
2022-09-15T04:09:32.449Z,57.74
2022-09-15T04:11:36.062Z,58.71
2022-09-15T04:13:40.682Z,58.12
2022-09-15T04:15:45.763Z,60.65
2022-09-15T04:17:50.006Z,59.69
2022-09-15T04:19:53.660Z,60.03
2022-09-15T04:21:59.962Z,60.24
2022-09-15T04:24:05.848Z,59.97
2022-09-15T04:26:12.934Z,60.03
2022-09-15T04:28:16.831Z,60.67
2022-09-15T04:30:20.447Z,60.97
2022-09-15T04:32:24.092Z,60.91
2022-09-15T04:34:27.935Z,61.80
2022-09-15T04:36:32.446Z,62.61
2022-09-15T04:38:36.926Z,62.36
2022-09-15T04:40:44.034Z,62.75
2022-09-15T04:42:48.569Z,63.73
2022-09-15T04:44:52.214Z,63.45
2022-09-15T04:46:55.558Z,63.83
2022-09-15T04:48:59.990Z,64.20
2022-09-15T04:51:05.467Z,64.60
2022-09-15T04:53:09.080Z,64.79
2022-09-15T04:55:12.978Z,65.08
2022-09-15T04:57:17.145Z,66.55
2022-09-15T04:59:21.219Z,66.75
2022-09-15T05:01:26.654Z,68.36
2022-09-15T05:03:30.585Z,68.18
2022-09-15T05:05:35.347Z,68.58
2022-09-15T05:07:39.114Z,69.45
2022-09-15T05:09:42.807Z,69.75
2022-09-15T05:11:46.198Z,69.98
2022-09-15T05:13:52.890Z,70.01
2022-09-15T05:16:05.442Z,70.24
2022-09-15T05:18:09.908Z,70.16
2022-09-15T05:20:13.537Z,70.04
2022-09-15T05:22:20.351Z,70.52
2022-09-15T05:24:23.823Z,71.97
2022-09-15T05:26:29.913Z,70.73
2022-09-15T05:28:34.920Z,70.15
2022-09-15T05:30:44.080Z,71.07
2022-09-15T05:32:48.026Z,71.40
2022-09-15T05:34:51.750Z,71.64
2022-09-15T05:36:55.229Z,72.46
2022-09-15T05:38:59.997Z,72.91
2022-09-15T05:41:08.441Z,72.83
2022-09-15T05:43:12.501Z,74.20
2022-09-15T05:45:16.002Z,73.55
2022-09-15T05:47:19.594Z,74.80
2022-09-15T05:49:23.101Z,74.31
2022-09-15T05:51:26.770Z,74.71
2022-09-15T05:53:30.515Z,75.49
2022-09-15T05:55:37.953Z,75.89
2022-09-15T05:57:41.636Z,74.95
2022-09-15T05:59:45.000Z,75.20
2022-09-15T06:01:49.302Z,75.06
2022-09-15T06:03:53.057Z,75.54
2022-09-15T06:06:03.432Z,76.10
2022-09-15T06:08:06.752Z,75.85
2022-09-15T06:10:10.456Z,75.71
2022-09-15T06:12:18.847Z,76.10
2022-09-15T06:14:22.574Z,75.37
2022-09-15T06:16:26.453Z,75.29
2022-09-15T06:18:30.378Z,75.60
2022-09-15T06:20:34.161Z,75.53
2022-09-15T06:22:37.829Z,75.37
2022-09-15T06:24:41.651Z,74.99
2022-09-15T06:26:45.389Z,75.46
2022-09-15T06:28:53.432Z,75.80
2022-09-15T06:30:57.288Z,75.72
2022-09-15T06:33:01.086Z,76.80
2022-09-15T06:35:14.654Z,77.74
2022-09-15T06:37:18.483Z,78.42
2022-09-15T06:39:22.165Z,78.66
2022-09-15T06:41:38.224Z,79.70
2022-09-15T06:43:54.084Z,79.90
2022-09-15T06:46:03.310Z,80.59
2022-09-15T06:48:23.463Z,80.68
2022-09-15T06:50:29.869Z,80.97
2022-09-15T06:52:33.408Z,82.96
2022-09-15T06:54:37.098Z,84.07
2022-09-15T06:56:40.434Z,84.90
2022-09-15T06:58:44.502Z,84.21
2022-09-15T07:00:50.008Z,86.74
2022-09-15T07:02:53.988Z,86.87
2022-09-15T07:04:57.624Z,85.84
2022-09-15T07:07:03.557Z,86.32
2022-09-15T07:09:07.488Z,85.95
2022-09-15T07:11:11.721Z,85.43
2022-09-15T07:13:15.867Z,85.20
2022-09-15T07:15:19.646Z,85.45
2022-09-15T07:17:23.406Z,85.87
2022-09-15T07:19:26.901Z,84.75
2022-09-15T07:21:30.600Z,84.64
2022-09-15T07:23:36.933Z,85.15
2022-09-15T07:25:46.319Z,84.74
2022-09-15T07:27:52.510Z,84.75
2022-09-15T07:29:56.073Z,85.15
2022-09-15T07:32:00.096Z,84.87
2022-09-15T07:34:04.140Z,85.66
2022-09-15T07:36:08.431Z,85.58
2022-09-15T07:38:16.992Z,85.49
2022-09-15T07:40:20.616Z,86.12
2022-09-15T07:42:24.515Z,86.12
2022-09-15T07:44:27.856Z,87.09
2022-09-15T07:46:33.264Z,87.13
2022-09-15T07:48:36.882Z,88.80
2022-09-15T07:50:40.572Z,88.55
2022-09-15T07:52:44.168Z,88.89
2022-09-15T07:54:48.044Z,88.82
2022-09-15T07:56:51.859Z,89.01
2022-09-15T07:58:55.817Z,88.80
2022-09-15T08:01:04.974Z,87.73
2022-09-15T08:03:08.404Z,88.78
2022-09-15T08:05:11.879Z,89.13
2022-09-15T08:07:15.653Z,89.55
2022-09-15T08:09:19.618Z,90.16
2022-09-15T08:11:23.333Z,89.87
2022-09-15T08:13:27.716Z,90.24
2022-09-15T08:15:31.668Z,90.24
2022-09-15T08:17:36.163Z,90.27
2022-09-15T08:19:42.663Z,90.99
2022-09-15T08:21:46.371Z,90.90
2022-09-15T08:23:58.720Z,90.50
2022-09-15T08:26:13.581Z,91.76
2022-09-15T08:28:17.475Z,90.66
2022-09-15T08:30:23.121Z,90.94
2022-09-15T08:32:26.688Z,91.20
2022-09-15T08:34:31.601Z,91.46
2022-09-15T08:36:35.587Z,90.81
2022-09-15T08:38:43.052Z,91.74
2022-09-15T08:40:47.372Z,91.41
2022-09-15T08:42:53.335Z,90.87
2022-09-15T08:44:56.761Z,90.96
2022-09-15T08:47:19.029Z,90.98
2022-09-15T08:49:52.639Z,90.92
2022-09-15T08:51:58.990Z,91.36
2022-09-15T08:54:07.134Z,92.55
2022-09-15T08:56:18.651Z,91.45
2022-09-15T08:58:30.995Z,93.23
2022-09-15T09:00:34.799Z,93.63
2022-09-15T09:02:57.016Z,92.56
2022-09-15T09:05:11.658Z,93.38
2022-09-15T09:07:33.590Z,94.98
2022-09-15T09:09:55.628Z,94.85
2022-09-15T09:12:01.854Z,95.25
2022-09-15T09:14:18.036Z,94.94
2022-09-15T09:16:24.615Z,95.64
2022-09-15T09:18:28.117Z,95.53
2022-09-15T09:20:34.871Z,96.77
2022-09-15T09:22:40.416Z,96.54
2022-09-15T09:24:50.238Z,97.24
2022-09-15T09:26:56.634Z,98.10
2022-09-15T09:29:01.130Z,99.56
2022-09-15T09:31:09.384Z,100.00
2022-09-15T09:33:31.842Z,99.50
2022-09-15T09:35:46.908Z,100.00
2022-09-15T09:37:52.147Z,100.00
2022-09-15T09:39:55.898Z,99.84
2022-09-15T09:42:00.283Z,99.76
2022-09-15T09:44:04.986Z,100.00
2022-09-15T09:46:19.350Z,100.00
2022-09-15T09:48:24.035Z,100.00
2022-09-15T09:50:42.590Z,100.00
2022-09-15T09:52:46.403Z,100.00
2022-09-15T09:55:00.920Z,100.00
2022-09-15T09:57:23.006Z,100.00
2022-09-15T09:59:44.016Z,100.00
2022-09-15T10:02:05.415Z,100.00
2022-09-15T10:04:20.084Z,100.00
2022-09-15T10:06:23.972Z,100.00
2022-09-15T10:08:29.895Z,100.00
2022-09-15T10:10:33.413Z,100.00
2022-09-15T10:12:41.849Z,100.00
2022-09-15T10:14:53.125Z,100.00
2022-09-15T10:17:08.756Z,100.00
2022-09-15T10:19:15.524Z,100.00
2022-09-15T10:21:23.814Z,100.00
2022-09-15T10:23:32.125Z,100.00
2022-09-15T10:25:58.596Z,100.00
2022-09-15T10:28:13.071Z,100.00
2022-09-15T10:30:20.045Z,100.00
2022-09-15T10:32:25.403Z,100.00
2022-09-15T10:34:29.169Z,100.00
2022-09-15T10:36:33.302Z,100.00
2022-09-15T10:38:36.726Z,100.00
2022-09-15T10:40:49.931Z,100.00
2022-09-15T10:42:54.797Z,100.00
2022-09-15T10:44:58.939Z,100.00
2022-09-15T10:47:11.559Z,100.00
2022-09-15T10:49:27.418Z,100.00
2022-09-15T10:51:30.732Z,100.00
2022-09-15T10:53:37.057Z,100.00
2022-09-15T10:55:53.049Z,100.00
2022-09-15T10:58:20.147Z,100.00
2022-09-15T11:00:25.146Z,100.00
2022-09-15T11:02:45.412Z,100.00
2022-09-15T11:04:49.263Z,100.00
2022-09-15T11:07:14.817Z,100.00
2022-09-15T11:09:40.047Z,100.00
2022-09-15T11:11:43.721Z,100.00
2022-09-15T11:14:00.627Z,100.00
2022-09-15T11:16:10.743Z,100.00
2022-09-15T11:18:49.606Z,100.00
2022-09-15T11:21:02.041Z,100.00
2022-09-15T11:23:25.107Z,100.00
2022-09-15T11:25:30.930Z,100.00
2022-09-15T11:27:37.564Z,100.00
2022-09-15T11:30:02.446Z,100.00
2022-09-15T11:32:11.690Z,100.00
2022-09-15T11:34:26.554Z,100.00
2022-09-15T11:36:33.948Z,100.00
2022-09-15T11:38:37.660Z,100.00
2022-09-15T11:40:47.784Z,100.00
2022-09-15T11:42:57.369Z,100.00
2022-09-15T11:45:02.201Z,100.00
2022-09-15T11:47:09.035Z,100.00
2022-09-15T11:49:18.622Z,100.00
2022-09-15T11:51:24.931Z,100.00
2022-09-15T11:53:44.467Z,100.00
2022-09-15T11:55:57.427Z,100.00
2022-09-15T11:58:06.952Z,100.00
2022-09-15T12:00:18.406Z,100.00
2022-09-15T12:02:24.793Z,100.00
2022-09-15T12:04:39.760Z,100.00
2022-09-15T12:06:52.748Z,100.00
2022-09-15T12:09:06.926Z,100.00
2022-09-15T12:11:17.199Z,100.00
2022-09-15T12:13:22.169Z,100.00
2022-09-15T12:15:28.548Z,100.00
2022-09-15T12:17:32.277Z,100.00
2022-09-15T12:19:35.959Z,100.00
2022-09-15T12:21:49.885Z,100.00
2022-09-15T12:24:01.460Z,100.00
2022-09-15T12:26:17.063Z,100.00
2022-09-15T12:28:23.329Z,100.00
2022-09-15T12:30:43.773Z,100.00
2022-09-15T12:32:47.295Z,100.00
2022-09-15T12:35:13.474Z,100.00
2022-09-15T12:37:17.537Z,100.00
2022-09-15T12:39:21.873Z,100.00
2022-09-15T12:41:28.047Z,100.00
2022-09-15T12:43:32.866Z,100.00
2022-09-15T12:45:39.827Z,100.00
2022-09-15T12:47:50.199Z,100.00
2022-09-15T12:49:56.875Z,100.00
2022-09-15T12:52:01.041Z,100.00
2022-09-15T12:54:06.072Z,100.00
2022-09-15T12:56:12.945Z,100.00
2022-09-15T12:58:45.699Z,100.00
2022-09-15T13:01:14.329Z,100.00
2022-09-15T13:03:45.097Z,100.00
2022-09-15T13:05:48.436Z,100.00
2022-09-15T13:07:58.672Z,100.00
2022-09-15T13:10:08.098Z,100.00
2022-09-15T13:12:13.714Z,100.00
2022-09-15T13:14:24.961Z,100.00
2022-09-15T13:16:47.612Z,100.00
2022-09-15T13:18:55.600Z,100.00
2022-09-15T13:21:04.108Z,100.00
2022-09-15T13:23:15.426Z,100.00
2022-09-15T13:25:23.273Z,100.00
2022-09-15T13:27:30.262Z,100.00
2022-09-15T13:29:34.493Z,100.00
2022-09-15T13:31:51.956Z,100.00
2022-09-15T13:39:24.005Z,100.00
2022-09-15T13:41:41.038Z,100.00
2022-09-15T13:44:03.235Z,100.00
2022-09-15T13:46:22.697Z,100.00
2022-09-15T13:48:32.174Z,100.00
2022-09-15T13:50:40.439Z,100.00
2022-09-15T13:53:08.254Z,100.00
2022-09-15T13:55:22.486Z,100.00
2022-09-15T13:59:51.944Z,100.00
2022-09-15T14:01:56.540Z,100.00
2022-09-15T14:04:02.538Z,100.00
2022-09-15T14:06:13.868Z,100.00
2022-09-15T14:08:19.930Z,100.00
2022-09-15T14:10:25.839Z,100.00
2022-09-15T14:12:29.947Z,100.00
2022-09-15T14:14:39.631Z,100.00
2022-09-15T14:16:49.815Z,100.00
2022-09-15T14:18:58.622Z,100.00
2022-09-15T14:21:03.744Z,100.00
2022-09-15T14:23:15.947Z,100.00
2022-09-15T14:25:20.562Z,100.00
2022-09-15T14:27:34.662Z,100.00
2022-09-15T14:29:44.968Z,100.00
2022-09-15T14:31:49.184Z,100.00
2022-09-15T14:33:53.091Z,100.00
2022-09-15T14:35:56.630Z,100.00
2022-09-15T14:38:03.162Z,100.00
2022-09-15T14:40:19.366Z,98.49
2022-09-15T14:42:27.200Z,99.05
2022-09-15T14:47:01.015Z,97.80
2022-09-15T14:49:13.206Z,97.99
2022-09-15T14:51:25.440Z,100.00
2022-09-15T14:53:31.338Z,100.00
2022-09-15T14:55:55.019Z,100.00
2022-09-15T14:58:21.830Z,100.00
2022-09-15T15:00:27.793Z,100.00
2022-09-15T15:02:52.839Z,98.52
2022-09-15T15:05:06.606Z,96.66
2022-09-15T15:07:16.096Z,95.63
2022-09-15T15:09:20.026Z,92.70
2022-09-15T15:11:24.009Z,90.69
2022-09-15T15:13:28.129Z,90.95
2022-09-15T15:15:32.857Z,90.76
2022-09-15T15:17:38.456Z,90.31
2022-09-15T15:19:43.341Z,90.07
2022-09-15T15:21:49.327Z,87.08
2022-09-15T15:23:52.898Z,84.78
2022-09-15T15:26:16.423Z,85.12
2022-09-15T15:28:36.064Z,84.92
2022-09-15T15:30:42.871Z,84.14
2022-09-15T15:32:46.630Z,84.42
2022-09-15T15:35:10.290Z,80.88
2022-09-15T15:37:23.576Z,83.56
2022-09-15T15:39:27.463Z,83.11
2022-09-15T15:41:32.820Z,80.05
2022-09-15T15:43:36.689Z,82.32
2022-09-15T15:45:49.433Z,78.97
2022-09-15T15:47:53.770Z,79.92
2022-09-15T15:50:13.709Z,78.24
2022-09-15T15:52:17.810Z,76.43
2022-09-15T15:54:21.212Z,75.55
2022-09-15T15:56:26.451Z,76.27
2022-09-15T15:58:30.392Z,73.92
2022-09-15T16:00:37.173Z,73.36
2022-09-15T16:02:40.973Z,74.61
2022-09-15T16:04:44.491Z,75.36
2022-09-15T16:06:48.727Z,72.44
2022-09-15T16:08:53.315Z,72.40
2022-09-15T16:11:00.726Z,68.60
2022-09-15T16:13:04.827Z,68.15
2022-09-15T16:15:15.896Z,68.73
2022-09-15T16:17:19.855Z,68.32
2022-09-15T16:19:23.575Z,63.29
2022-09-15T16:21:33.367Z,61.23
2022-09-15T16:23:37.265Z,58.74
2022-09-15T16:25:49.459Z,59.42
2022-09-15T16:27:53.293Z,58.45
2022-09-15T16:29:56.929Z,64.49
2022-09-15T16:32:00.889Z,60.51
2022-09-15T16:34:05.082Z,57.49
2022-09-15T16:36:16.825Z,57.68
2022-09-15T16:38:21.211Z,58.41
2022-09-15T16:40:27.136Z,57.31
2022-09-15T16:42:33.389Z,57.66
2022-09-15T16:44:36.742Z,55.61
2022-09-15T16:46:40.878Z,55.75
2022-09-15T16:48:45.335Z,57.16
2022-09-15T16:51:09.197Z,55.12
2022-09-15T16:53:16.435Z,52.73
2022-09-15T16:55:33.467Z,50.77
2022-09-15T16:57:37.488Z,50.53
2022-09-15T16:59:40.703Z,50.69
2022-09-15T17:01:44.089Z,51.51
2022-09-15T17:03:48.161Z,50.29
2022-09-15T17:05:53.036Z,53.72
2022-09-15T17:07:59.133Z,52.06
2022-09-15T17:10:05.435Z,50.10
2022-09-15T17:12:10.808Z,49.90
2022-09-15T17:14:17.199Z,49.90
2022-09-15T17:16:21.099Z,48.18
2022-09-15T17:18:25.506Z,47.88
2022-09-15T17:20:29.992Z,50.79
2022-09-15T17:22:33.671Z,47.67
2022-09-15T17:24:37.345Z,48.20
2022-09-15T17:26:41.863Z,48.39
2022-09-15T17:28:45.857Z,50.43
2022-09-15T17:30:50.501Z,51.13
2022-09-15T17:33:01.805Z,44.43
2022-09-15T17:35:14.737Z,46.12
2022-09-15T17:37:18.651Z,43.97
2022-09-15T17:39:22.609Z,42.74
2022-09-15T17:41:26.454Z,45.11
2022-09-15T17:43:34.142Z,41.12
2022-09-15T17:45:38.558Z,39.86
2022-09-15T17:47:42.047Z,43.59
2022-09-15T17:49:45.826Z,43.33
2022-09-15T17:51:49.623Z,43.37
2022-09-15T17:53:53.700Z,44.51
2022-09-15T17:55:57.731Z,45.96
2022-09-15T17:58:02.693Z,45.37
2022-09-15T18:00:06.675Z,45.81
2022-09-15T18:02:19.862Z,45.46
2022-09-15T18:04:23.369Z,44.65
2022-09-15T18:06:26.981Z,42.96
2022-09-15T18:08:30.689Z,45.43
2022-09-15T18:10:37.726Z,40.90
2022-09-15T18:12:43.983Z,40.73
2022-09-15T18:14:51.324Z,41.33
2022-09-15T18:16:54.677Z,42.11
2022-09-15T18:18:58.509Z,39.48
2022-09-15T18:21:02.152Z,39.35
2022-09-15T18:23:14.758Z,41.61
2022-09-15T18:25:18.297Z,40.39
2022-09-15T18:27:23.433Z,45.04
2022-09-15T18:29:27.738Z,42.43
2022-09-15T18:31:31.433Z,46.95
2022-09-15T18:33:34.748Z,43.97
2022-09-15T18:35:40.191Z,39.31
2022-09-15T18:37:44.171Z,43.93
2022-09-15T18:39:47.926Z,38.93
2022-09-15T18:41:51.502Z,41.54
2022-09-15T18:43:55.288Z,41.23
2022-09-15T18:46:04.676Z,39.68
2022-09-15T18:48:12.051Z,39.76
2022-09-15T18:50:17.678Z,40.70
2022-09-15T18:52:21.644Z,40.19
2022-09-15T18:54:25.441Z,42.19
2022-09-15T18:56:29.215Z,39.92
2022-09-15T18:58:35.715Z,40.32
2022-09-15T19:00:39.360Z,38.75
2022-09-15T19:02:43.296Z,37.35
2022-09-15T19:04:47.003Z,38.47
2022-09-15T19:06:53.252Z,38.89
2022-09-15T19:08:57.098Z,38.02
2022-09-15T19:11:01.384Z,36.57
2022-09-15T19:13:07.723Z,37.97
2022-09-15T19:15:12.199Z,38.83
2022-09-15T19:17:17.939Z,35.61
2022-09-15T19:19:21.589Z,34.55
2022-09-15T19:21:27.364Z,34.20
2022-09-15T19:23:31.015Z,38.09
2022-09-15T19:25:34.942Z,33.50
2022-09-15T19:27:39.599Z,34.08
2022-09-15T19:29:43.534Z,32.78
2022-09-15T19:31:47.499Z,34.26
2022-09-15T19:33:54.372Z,34.94
2022-09-15T19:36:17.079Z,34.93
2022-09-15T19:38:26.023Z,32.93
2022-09-15T19:40:31.962Z,35.16
2022-09-15T19:42:35.506Z,32.05
2022-09-15T19:44:39.347Z,31.90
2022-09-15T19:46:43.138Z,33.22
2022-09-15T19:48:47.923Z,34.04
2022-09-15T19:50:57.854Z,34.90
2022-09-15T19:53:01.566Z,34.26
2022-09-15T19:55:06.441Z,33.35
2022-09-15T19:57:10.080Z,33.23
2022-09-15T19:59:13.519Z,34.83
2022-09-15T20:01:17.476Z,34.21
2022-09-15T20:03:21.448Z,32.38
2022-09-15T20:05:34.234Z,31.09
2022-09-15T20:07:37.736Z,31.29
2022-09-15T20:09:41.276Z,29.58
2022-09-15T20:11:50.246Z,32.21
2022-09-15T20:13:55.085Z,30.21
2022-09-15T20:16:02.981Z,29.81
2022-09-15T20:18:07.540Z,31.41
2022-09-15T20:20:12.682Z,30.17
2022-09-15T20:22:16.193Z,29.54
2022-09-15T20:24:20.724Z,28.16
2022-09-15T20:26:24.835Z,28.33
2022-09-15T20:28:28.859Z,28.08
2022-09-15T20:30:32.863Z,27.76
2022-09-15T20:32:39.169Z,28.34
2022-09-15T20:34:42.808Z,28.11
2022-09-15T20:36:46.712Z,27.74
2022-09-15T20:38:50.578Z,27.00
2022-09-15T20:41:00.440Z,28.94
2022-09-15T20:43:06.679Z,26.30
2022-09-15T20:45:10.599Z,27.16
2022-09-15T20:47:14.193Z,27.30
2022-09-15T20:49:17.816Z,27.07
2022-09-15T20:51:26.463Z,25.47
2022-09-15T20:53:30.249Z,26.12
2022-09-15T20:55:37.429Z,26.83
2022-09-15T20:57:43.471Z,26.56
2022-09-15T20:59:46.960Z,26.49
2022-09-15T21:01:50.714Z,26.24
2022-09-15T21:03:57.772Z,25.57
2022-09-15T21:06:02.766Z,25.00
2022-09-15T21:08:06.614Z,26.80
2022-09-15T21:10:10.855Z,25.26
2022-09-15T21:12:14.555Z,26.51
2022-09-15T21:14:18.410Z,25.42
2022-09-15T21:16:23.896Z,25.16
2022-09-15T21:18:30.102Z,24.12
2022-09-15T21:20:33.788Z,23.65
2022-09-15T21:22:37.443Z,24.21
2022-09-15T21:24:41.284Z,23.44
2022-09-15T21:27:03.023Z,23.98
2022-09-15T21:29:09.281Z,24.51
2022-09-15T21:31:14.623Z,22.35
2022-09-15T21:33:18.395Z,23.91
2022-09-15T21:35:22.309Z,23.80
2022-09-15T21:37:27.882Z,25.42
2022-09-15T21:39:31.448Z,24.46
2022-09-15T21:41:35.184Z,23.17
2022-09-15T21:43:40.259Z,23.41
2022-09-15T21:45:44.866Z,23.24
2022-09-15T21:47:48.700Z,23.33
2022-09-15T21:49:53.518Z,22.62
2022-09-15T21:51:57.737Z,23.09
2022-09-15T21:54:01.713Z,23.24
2022-09-15T21:56:06.514Z,22.34
2022-09-15T21:58:12.418Z,22.52
2022-09-15T22:00:15.997Z,23.21
2022-09-15T22:02:20.840Z,22.90
2022-09-15T22:04:24.442Z,24.16
2022-09-15T22:06:32.523Z,24.08
2022-09-15T22:08:36.127Z,24.08
2022-09-15T22:10:40.104Z,23.58
2022-09-15T22:12:43.888Z,24.18
2022-09-15T22:14:47.552Z,22.86
2022-09-15T22:16:51.452Z,23.38
2022-09-15T22:18:58.071Z,23.58
2022-09-15T22:21:21.061Z,23.12
2022-09-15T22:23:25.068Z,23.96
2022-09-15T22:25:28.720Z,23.20
2022-09-15T22:27:32.806Z,22.91
2022-09-15T22:29:36.853Z,21.96
2022-09-15T22:31:40.660Z,21.65
2022-09-15T22:33:45.503Z,22.66
2022-09-15T22:35:48.988Z,21.31
2022-09-15T22:37:52.576Z,21.93
2022-09-15T22:39:59.673Z,21.73
2022-09-15T22:42:03.694Z,21.83
2022-09-15T22:44:08.021Z,22.27
2022-09-15T22:46:12.510Z,22.10
2022-09-15T22:48:16.388Z,22.46
2022-09-15T22:50:19.758Z,23.86
2022-09-15T22:52:23.347Z,23.39
2022-09-15T22:54:29.316Z,24.19
2022-09-15T22:56:32.880Z,24.93
2022-09-15T22:58:37.583Z,26.06
2022-09-15T23:00:41.454Z,26.76
2022-09-15T23:02:45.273Z,27.23
2022-09-15T23:04:49.197Z,26.54
2022-09-15T23:06:52.949Z,27.80
2022-09-15T23:09:00.835Z,27.80
2022-09-15T23:11:09.550Z,27.98
2022-09-15T23:13:12.994Z,28.75
2022-09-15T23:15:16.748Z,28.84
2022-09-15T23:17:20.441Z,28.98
2022-09-15T23:19:24.786Z,29.74
2022-09-15T23:21:29.411Z,29.45
2022-09-15T23:23:33.227Z,30.29
2022-09-15T23:25:36.691Z,29.83
2022-09-15T23:27:40.677Z,29.90
2022-09-15T23:29:44.425Z,31.10
2022-09-15T23:31:50.625Z,30.72
2022-09-15T23:33:54.070Z,30.98
2022-09-15T23:36:00.058Z,31.12
2022-09-15T23:38:03.742Z,30.60
2022-09-15T23:40:07.943Z,30.83
2022-09-15T23:42:14.500Z,31.53
2022-09-15T23:44:20.367Z,31.26
2022-09-15T23:46:24.005Z,31.07
2022-09-15T23:48:27.906Z,31.65
2022-09-15T23:50:33.279Z,31.33
2022-09-15T23:52:36.997Z,31.39
2022-09-15T23:54:40.250Z,32.16
2022-09-15T23:56:44.499Z,31.97
2022-09-15T23:58:48.054Z,32.22
